createdAt,value
2023-09-22T00:00:11.491Z,79.22
2023-09-22T00:02:41.812Z,78.74
2023-09-22T00:05:11.537Z,80.52
2023-09-22T00:07:38.732Z,80.17
2023-09-22T00:10:07.227Z,80.21
2023-09-22T00:12:33.765Z,80.95
2023-09-22T00:15:00.776Z,80.61
2023-09-22T00:17:28.847Z,82.22
2023-09-22T00:19:55.686Z,81.96
2023-09-22T00:22:22.146Z,81.66
2023-09-22T00:24:48.532Z,82.70
2023-09-22T00:27:17.105Z,82.71
2023-09-22T00:29:43.807Z,82.17
2023-09-22T00:32:12.805Z,81.97
2023-09-22T00:34:39.704Z,82.23
2023-09-22T00:37:06.444Z,82.68
2023-09-22T00:39:32.884Z,84.91
2023-09-22T00:42:00.638Z,85.36
2023-09-22T00:44:27.027Z,86.12
2023-09-22T00:46:53.591Z,85.40
2023-09-22T00:49:20.317Z,85.20
2023-09-22T00:51:47.095Z,86.23
2023-09-22T00:54:14.855Z,86.49
2023-09-22T00:56:41.251Z,88.03
2023-09-22T00:59:08.786Z,88.66
2023-09-22T01:01:35.457Z,87.22
2023-09-22T01:04:01.964Z,86.45
2023-09-22T01:06:30.824Z,87.89
2023-09-22T01:08:57.674Z,88.72
2023-09-22T01:11:24.120Z,88.67
2023-09-22T01:13:50.499Z,87.69
2023-09-22T01:16:17.293Z,88.49
2023-09-22T01:18:44.923Z,88.05
2023-09-22T01:21:14.018Z,88.79
2023-09-22T01:23:40.647Z,87.10
2023-09-22T01:26:06.994Z,87.30
2023-09-22T01:28:33.786Z,86.74
2023-09-22T01:31:00.393Z,86.48
2023-09-22T01:33:26.837Z,87.26
2023-09-22T01:35:53.835Z,88.00
2023-09-22T01:38:24.830Z,86.97
2023-09-22T01:40:51.564Z,87.25
2023-09-22T01:43:20.802Z,88.44
2023-09-22T01:45:47.287Z,89.88
2023-09-22T01:48:14.596Z,89.58
2023-09-22T01:50:42.377Z,88.29
2023-09-22T01:53:10.973Z,89.45
2023-09-22T01:55:38.403Z,89.90
2023-09-22T01:58:05.543Z,90.66
2023-09-22T02:00:34.027Z,89.26
2023-09-22T02:03:01.438Z,87.62
2023-09-22T02:05:28.302Z,86.83
2023-09-22T02:07:54.767Z,86.49
2023-09-22T02:10:21.370Z,85.24
2023-09-22T02:12:47.875Z,85.60
2023-09-22T02:15:14.859Z,85.96
2023-09-22T02:17:43.189Z,86.67
2023-09-22T02:20:23.448Z,86.73
2023-09-22T02:22:52.034Z,86.35
2023-09-22T02:25:18.971Z,86.73
2023-09-22T02:27:45.779Z,87.68
2023-09-22T02:30:12.321Z,88.61
2023-09-22T02:32:40.341Z,87.55
2023-09-22T02:35:06.993Z,88.76
2023-09-22T02:37:33.467Z,86.44
2023-09-22T02:40:00.111Z,86.95
2023-09-22T02:42:27.770Z,87.59
2023-09-22T02:44:54.430Z,87.38
2023-09-22T02:47:21.109Z,87.30
2023-09-22T02:49:48.732Z,86.38
2023-09-22T02:52:15.306Z,86.23
2023-09-22T02:54:41.725Z,86.33
2023-09-22T02:57:08.144Z,87.39
2023-09-22T02:59:34.489Z,86.73
2023-09-22T03:02:00.941Z,87.70
2023-09-22T03:04:27.337Z,86.58
2023-09-22T03:06:53.763Z,85.78
2023-09-22T03:09:20.152Z,85.02
2023-09-22T03:11:46.891Z,84.29
2023-09-22T03:14:13.476Z,85.08
2023-09-22T03:16:40.317Z,85.81
2023-09-22T03:19:08.443Z,86.56
2023-09-22T03:21:35.113Z,85.85
2023-09-22T03:24:01.563Z,85.49
2023-09-22T03:26:28.124Z,85.35
2023-09-22T03:28:54.466Z,86.06
2023-09-22T03:31:20.947Z,85.17
2023-09-22T03:33:47.900Z,86.04
2023-09-22T03:36:14.512Z,85.87
2023-09-22T03:38:51.065Z,85.60
2023-09-22T03:41:18.510Z,86.42
2023-09-22T03:43:45.367Z,87.71
2023-09-22T03:46:11.821Z,87.48
2023-09-22T03:48:38.851Z,86.21
2023-09-22T03:51:06.645Z,86.84
2023-09-22T03:53:33.017Z,86.46
2023-09-22T03:55:59.518Z,88.50
2023-09-22T03:58:26.731Z,86.93
2023-09-22T04:01:12.835Z,87.13
2023-09-22T04:03:39.279Z,86.82
2023-09-22T04:06:06.354Z,87.31
2023-09-22T04:08:33.114Z,86.83
2023-09-22T04:10:59.740Z,87.79
2023-09-22T04:13:28.233Z,87.81
2023-09-22T04:16:00.303Z,86.76
2023-09-22T04:18:30.398Z,85.83
2023-09-22T04:20:58.745Z,86.22
2023-09-22T04:23:26.329Z,85.24
2023-09-22T04:25:55.366Z,86.75
2023-09-22T04:28:24.704Z,84.98
2023-09-22T04:30:51.482Z,86.10
2023-09-22T04:33:18.751Z,86.17
2023-09-22T04:35:45.352Z,86.33
2023-09-22T04:38:12.342Z,85.69
2023-09-22T04:40:39.430Z,85.58
2023-09-22T04:43:08.915Z,85.32
2023-09-22T04:45:42.658Z,85.47
2023-09-22T04:48:09.981Z,85.60
2023-09-22T04:50:37.004Z,85.28
2023-09-22T04:53:05.514Z,86.26
2023-09-22T04:55:36.414Z,86.33
2023-09-22T04:58:04.256Z,85.60
2023-09-22T05:00:34.391Z,86.29
2023-09-22T05:03:01.722Z,87.64
2023-09-22T05:05:29.451Z,87.40
2023-09-22T05:07:56.235Z,86.65
2023-09-22T05:10:22.750Z,85.68
2023-09-22T05:12:51.212Z,86.72
2023-09-22T05:15:17.670Z,85.68
2023-09-22T05:17:44.549Z,87.13
2023-09-22T05:20:14.985Z,86.87
2023-09-22T05:22:42.238Z,86.69
2023-09-22T05:25:09.233Z,87.48
2023-09-22T05:27:36.270Z,85.65
2023-09-22T05:30:04.968Z,86.58
2023-09-22T05:32:31.354Z,85.51
2023-09-22T05:34:58.756Z,86.92
2023-09-22T05:37:25.168Z,85.66
2023-09-22T05:39:52.556Z,87.42
2023-09-22T05:42:19.026Z,87.28
2023-09-22T05:44:45.425Z,88.14
2023-09-22T05:47:11.891Z,86.99
2023-09-22T05:49:38.241Z,86.90
2023-09-22T05:52:05.227Z,87.42
2023-09-22T05:54:31.731Z,86.61
2023-09-22T05:56:58.850Z,85.78
2023-09-22T05:59:28.967Z,86.29
2023-09-22T06:01:56.883Z,86.08
2023-09-22T06:04:23.419Z,86.75
2023-09-22T06:06:51.666Z,86.36
2023-09-22T06:09:19.026Z,85.28
2023-09-22T06:11:46.466Z,84.55
2023-09-22T06:14:14.767Z,85.11
2023-09-22T06:16:41.142Z,85.80
2023-09-22T06:19:09.927Z,85.35
2023-09-22T06:21:37.197Z,85.66
2023-09-22T06:24:03.848Z,85.22
2023-09-22T06:26:30.274Z,83.69
2023-09-22T06:28:56.977Z,85.30
2023-09-22T06:31:23.358Z,84.79
2023-09-22T06:33:50.878Z,84.74
2023-09-22T06:36:18.479Z,83.95
2023-09-22T06:38:44.958Z,83.81
2023-09-22T06:41:17.737Z,84.41
2023-09-22T06:43:56.604Z,83.89
2023-09-22T06:46:26.282Z,84.16
2023-09-22T06:48:53.063Z,82.81
2023-09-22T06:51:20.025Z,84.14
2023-09-22T06:53:48.297Z,84.20
2023-09-22T06:56:14.715Z,84.82
2023-09-22T06:58:41.555Z,85.91
2023-09-22T07:01:13.461Z,85.60
2023-09-22T07:03:44.556Z,84.56
2023-09-22T07:06:15.804Z,85.21
2023-09-22T07:08:44.820Z,84.92
2023-09-22T07:11:11.377Z,82.84
2023-09-22T07:13:38.767Z,83.46
2023-09-22T07:16:05.677Z,83.99
2023-09-22T07:18:32.299Z,85.15
2023-09-22T07:20:58.781Z,85.84
2023-09-22T07:23:25.591Z,84.10
2023-09-22T07:26:05.515Z,82.95
2023-09-22T07:28:32.520Z,84.65
2023-09-22T07:30:59.685Z,83.65
2023-09-22T07:33:32.185Z,84.01
2023-09-22T07:35:59.895Z,83.18
2023-09-22T07:38:27.261Z,82.17
2023-09-22T07:40:53.929Z,83.76
2023-09-22T07:43:20.320Z,82.90
2023-09-22T07:45:47.032Z,83.28
2023-09-22T07:48:14.264Z,81.85
2023-09-22T07:50:41.345Z,80.87
2023-09-22T07:53:09.024Z,80.56
2023-09-22T07:55:36.427Z,80.07
2023-09-22T07:58:04.555Z,79.45
2023-09-22T08:00:31.168Z,80.93
2023-09-22T08:03:01.388Z,81.11
2023-09-22T08:05:32.488Z,79.29
2023-09-22T08:08:00.043Z,80.11
2023-09-22T08:10:26.772Z,79.25
2023-09-22T08:12:54.620Z,78.99
2023-09-22T08:15:22.977Z,79.28
2023-09-22T08:17:50.784Z,79.34
2023-09-22T08:20:17.981Z,77.68
2023-09-22T08:22:44.653Z,78.66
2023-09-22T08:25:12.371Z,79.07
2023-09-22T08:27:39.501Z,76.64
2023-09-22T08:30:12.784Z,76.51
2023-09-22T08:32:41.524Z,76.82
2023-09-22T08:35:14.846Z,75.84
2023-09-22T08:37:43.366Z,72.18
2023-09-22T08:40:12.576Z,72.77
2023-09-22T08:42:39.499Z,72.92
2023-09-22T08:45:09.849Z,72.32
2023-09-22T08:47:41.368Z,72.56
2023-09-22T08:50:13.521Z,70.17
2023-09-22T08:52:41.374Z,70.42
2023-09-22T08:55:10.072Z,70.23
2023-09-22T08:57:37.035Z,71.87
2023-09-22T09:00:11.890Z,73.78
2023-09-22T09:02:38.730Z,73.53
2023-09-22T09:05:31.750Z,73.66
2023-09-22T09:08:30.589Z,71.71
2023-09-22T09:10:58.347Z,70.30
2023-09-22T09:13:25.306Z,68.23
2023-09-22T09:15:55.743Z,68.28
2023-09-22T09:18:24.263Z,70.26
2023-09-22T09:21:15.893Z,70.53
2023-09-22T09:23:55.106Z,69.94
2023-09-22T09:26:28.012Z,69.79
2023-09-22T09:28:54.690Z,68.39
2023-09-22T09:31:21.713Z,67.65
2023-09-22T09:33:52.304Z,68.86
2023-09-22T09:36:18.709Z,70.17
2023-09-22T09:38:45.196Z,69.97
2023-09-22T09:41:12.176Z,69.71
2023-09-22T09:43:44.153Z,69.99
2023-09-22T09:46:11.369Z,69.06
2023-09-22T09:48:38.459Z,69.72
2023-09-22T09:51:10.393Z,69.31
2023-09-22T09:53:38.817Z,68.91
2023-09-22T09:56:06.880Z,69.71
2023-09-22T09:58:35.686Z,69.48
2023-09-22T10:01:06.252Z,69.12
2023-09-22T10:03:34.965Z,68.86
2023-09-22T10:06:04.432Z,68.68
2023-09-22T10:08:31.223Z,68.44
2023-09-22T10:11:00.878Z,67.18
2023-09-22T10:13:28.145Z,67.65
2023-09-22T10:16:02.347Z,66.75
2023-09-22T10:18:48.989Z,66.50
2023-09-22T10:21:31.112Z,68.22
2023-09-22T10:24:16.869Z,66.92
2023-09-22T10:26:55.685Z,65.54
2023-09-22T10:29:34.743Z,65.67
2023-09-22T10:32:16.770Z,65.42
2023-09-22T10:35:08.113Z,66.63
2023-09-22T10:37:38.418Z,66.45
2023-09-22T10:40:13.386Z,65.31
2023-09-22T10:42:44.996Z,65.89
2023-09-22T10:45:12.037Z,66.45
2023-09-22T10:47:52.983Z,67.96
2023-09-22T10:50:27.768Z,67.58
2023-09-22T10:52:59.271Z,67.77
2023-09-22T10:55:32.474Z,66.76
2023-09-22T10:57:59.780Z,64.36
2023-09-22T11:00:26.428Z,63.31
2023-09-22T11:02:54.411Z,63.04
2023-09-22T11:05:21.431Z,62.93
2023-09-22T11:07:48.790Z,59.35
2023-09-22T11:10:22.417Z,60.25
2023-09-22T11:12:55.903Z,61.14
2023-09-22T11:15:22.476Z,62.18
2023-09-22T11:17:49.192Z,60.73
2023-09-22T11:20:28.374Z,59.90
2023-09-22T11:22:55.180Z,59.02
2023-09-22T11:25:23.259Z,60.97
2023-09-22T11:27:50.853Z,59.24
2023-09-22T11:30:27.868Z,59.23
2023-09-22T11:32:55.416Z,59.43
2023-09-22T11:35:43.688Z,60.43
2023-09-22T11:38:25.108Z,59.66
2023-09-22T11:40:52.768Z,60.00
2023-09-22T11:43:19.286Z,59.59
2023-09-22T11:45:46.139Z,58.75
2023-09-22T11:48:12.830Z,58.89
2023-09-22T11:50:39.200Z,61.61
2023-09-22T11:53:21.315Z,61.72
2023-09-22T11:55:52.160Z,59.71
2023-09-22T11:58:18.596Z,59.66
2023-09-22T12:00:44.952Z,58.17
2023-09-22T12:03:11.349Z,58.06
2023-09-22T12:05:38.134Z,57.62
2023-09-22T12:08:06.710Z,58.98
2023-09-22T12:10:33.150Z,58.78
2023-09-22T12:12:59.585Z,58.48
2023-09-22T12:15:26.037Z,58.92
2023-09-22T12:17:52.458Z,58.49
2023-09-22T12:20:18.914Z,59.61
2023-09-22T12:22:45.337Z,58.35
2023-09-22T12:25:11.886Z,57.66
2023-09-22T12:27:38.259Z,58.75
2023-09-22T12:30:06.534Z,57.50
2023-09-22T12:32:33.257Z,57.57
2023-09-22T12:35:00.494Z,57.57
2023-09-22T12:37:26.976Z,55.76
2023-09-22T12:39:53.368Z,53.65
2023-09-22T12:42:19.741Z,55.45
2023-09-22T12:44:46.834Z,55.06
2023-09-22T12:47:13.607Z,55.14
2023-09-22T12:49:40.101Z,56.96
2023-09-22T12:52:06.506Z,57.33
2023-09-22T12:54:33.341Z,56.53
2023-09-22T12:57:00.414Z,57.70
2023-09-22T12:59:26.779Z,58.46
2023-09-22T13:01:53.226Z,56.35
2023-09-22T13:04:19.865Z,56.07
2023-09-22T13:06:46.393Z,55.85
2023-09-22T13:09:12.846Z,56.31
2023-09-22T13:11:40.008Z,55.98
2023-09-22T13:14:06.547Z,54.71
2023-09-22T13:16:33.095Z,54.48
2023-09-22T13:18:59.536Z,54.38
2023-09-22T13:21:26.221Z,54.16
2023-09-22T13:23:52.678Z,54.86
2023-09-22T13:26:20.506Z,55.35
2023-09-22T13:28:47.085Z,56.59
2023-09-22T13:31:14.104Z,56.64
2023-09-22T13:33:40.776Z,57.39
2023-09-22T13:36:15.842Z,57.27
2023-09-22T13:38:42.185Z,56.99
2023-09-22T13:41:15.705Z,56.14
2023-09-22T13:43:43.332Z,56.58
2023-09-22T13:46:13.436Z,56.56
2023-09-22T13:48:40.943Z,56.88
2023-09-22T13:51:07.979Z,57.04
2023-09-22T13:53:34.827Z,56.87
2023-09-22T13:56:02.816Z,56.54
2023-09-22T13:58:29.721Z,57.32
2023-09-22T14:00:56.192Z,56.29
2023-09-22T14:03:23.723Z,58.41
2023-09-22T14:05:50.380Z,57.60
2023-09-22T14:08:17.648Z,56.73
2023-09-22T14:10:44.200Z,57.61
2023-09-22T14:13:10.848Z,57.77
2023-09-22T14:15:37.257Z,56.80
2023-09-22T14:18:04.290Z,56.54
2023-09-22T14:20:30.815Z,56.86
2023-09-22T14:22:57.543Z,57.10
2023-09-22T14:25:25.363Z,57.39
2023-09-22T14:27:52.947Z,58.41
2023-09-22T14:30:19.612Z,58.36
2023-09-22T14:32:46.058Z,57.37
2023-09-22T14:35:12.537Z,58.29
2023-09-22T14:37:38.950Z,57.78
2023-09-22T14:40:06.730Z,58.02
2023-09-22T14:42:33.480Z,58.08
2023-09-22T14:44:59.925Z,58.10
2023-09-22T14:47:26.418Z,57.58
2023-09-22T14:49:52.988Z,58.06
2023-09-22T14:52:19.551Z,58.38
2023-09-22T14:54:46.012Z,57.68
2023-09-22T14:57:12.529Z,58.50
2023-09-22T14:59:38.931Z,59.03
2023-09-22T15:02:05.644Z,58.88
2023-09-22T15:04:32.379Z,58.85
2023-09-22T15:06:59.184Z,58.80
2023-09-22T15:09:26.119Z,57.59
2023-09-22T15:11:52.504Z,57.74
2023-09-22T15:14:18.894Z,57.32
2023-09-22T15:16:45.501Z,57.44
2023-09-22T15:19:12.522Z,58.09
2023-09-22T15:21:38.975Z,59.21
2023-09-22T15:24:05.524Z,58.38
2023-09-22T15:26:31.870Z,58.80
2023-09-22T15:28:58.226Z,59.14
2023-09-22T15:31:24.751Z,58.38
2023-09-22T15:33:51.207Z,59.14
2023-09-22T15:36:17.754Z,59.86
2023-09-22T15:38:44.851Z,58.80
2023-09-22T15:41:12.372Z,59.08
2023-09-22T15:43:39.755Z,59.51
2023-09-22T15:46:07.706Z,58.76
2023-09-22T15:48:34.922Z,59.30
2023-09-22T15:51:01.773Z,59.36
2023-09-22T15:53:29.136Z,59.15
2023-09-22T15:55:56.033Z,59.29
2023-09-22T15:58:23.183Z,59.54
2023-09-22T16:00:49.910Z,59.79
2023-09-22T16:03:18.268Z,59.00
2023-09-22T16:05:45.107Z,58.73
2023-09-22T16:08:11.886Z,59.62
2023-09-22T16:10:43.456Z,59.60
2023-09-22T16:13:20.822Z,59.56
2023-09-22T16:15:52.743Z,59.65
2023-09-22T16:18:19.149Z,59.71
2023-09-22T16:20:45.667Z,60.26
2023-09-22T16:23:13.082Z,58.76
2023-09-22T16:25:39.583Z,58.68
2023-09-22T16:28:06.181Z,59.72
2023-09-22T16:30:32.535Z,60.52
2023-09-22T16:32:58.925Z,59.39
2023-09-22T16:35:25.496Z,59.76
2023-09-22T16:37:51.953Z,59.24
2023-09-22T16:40:18.442Z,59.04
2023-09-22T16:42:44.868Z,59.62
2023-09-22T16:45:11.230Z,59.31
2023-09-22T16:47:37.634Z,58.82
2023-09-22T16:50:05.270Z,59.57
2023-09-22T16:52:33.797Z,59.66
2023-09-22T16:55:01.966Z,60.58
2023-09-22T16:57:28.650Z,60.30
2023-09-22T16:59:55.206Z,60.41
2023-09-22T17:02:21.855Z,60.73
2023-09-22T17:04:48.414Z,60.56
2023-09-22T17:07:14.872Z,60.44
2023-09-22T17:09:41.223Z,60.94
2023-09-22T17:12:07.622Z,61.43
2023-09-22T17:14:34.006Z,61.63
2023-09-22T17:17:00.402Z,61.20
2023-09-22T17:19:28.227Z,62.16
2023-09-22T17:21:54.577Z,62.56
2023-09-22T17:24:21.951Z,62.42
2023-09-22T17:26:49.530Z,62.89
2023-09-22T17:29:16.111Z,61.95
2023-09-22T17:31:42.581Z,61.89
2023-09-22T17:34:10.068Z,62.03
2023-09-22T17:36:36.918Z,62.59
2023-09-22T17:39:06.962Z,62.92
2023-09-22T17:41:33.632Z,63.28
2023-09-22T17:44:00.023Z,63.23
2023-09-22T17:46:27.909Z,63.18
2023-09-22T17:48:55.644Z,63.25
2023-09-22T17:51:21.992Z,63.51
2023-09-22T17:53:48.914Z,63.99
2023-09-22T17:56:15.676Z,63.89
2023-09-22T17:58:42.657Z,63.98
2023-09-22T18:01:12.500Z,63.85
2023-09-22T18:03:43.109Z,64.09
2023-09-22T18:06:10.751Z,63.94
2023-09-22T18:08:37.487Z,64.74
2023-09-22T18:11:04.213Z,63.85
2023-09-22T18:13:31.486Z,63.90
2023-09-22T18:15:58.361Z,63.92
2023-09-22T18:18:24.704Z,63.92
2023-09-22T18:20:54.278Z,63.94
2023-09-22T18:23:20.990Z,63.79
2023-09-22T18:25:52.723Z,64.00
2023-09-22T18:28:19.220Z,64.63
2023-09-22T18:30:45.641Z,64.30
2023-09-22T18:33:12.689Z,64.54
2023-09-22T18:35:39.504Z,64.78
2023-09-22T18:38:06.113Z,64.70
2023-09-22T18:40:33.060Z,65.06
2023-09-22T18:43:00.223Z,64.60
2023-09-22T18:45:26.720Z,64.21
2023-09-22T18:47:53.173Z,65.31
2023-09-22T18:50:20.067Z,65.30
2023-09-22T18:52:46.471Z,65.72
2023-09-22T18:55:12.842Z,65.53
2023-09-22T18:57:39.713Z,65.28
2023-09-22T19:00:06.895Z,65.74
2023-09-22T19:02:33.324Z,66.52
2023-09-22T19:05:00.077Z,67.42
2023-09-22T19:07:26.922Z,67.33
2023-09-22T19:09:53.316Z,68.33
2023-09-22T19:12:19.994Z,68.36
2023-09-22T19:14:46.341Z,68.56
2023-09-22T19:17:14.142Z,68.90
2023-09-22T19:19:40.979Z,68.46
2023-09-22T19:22:08.495Z,68.82
2023-09-22T19:24:34.928Z,68.60
2023-09-22T19:27:03.437Z,68.87
2023-09-22T19:29:30.556Z,69.16
2023-09-22T19:31:56.960Z,69.07
2023-09-22T19:34:23.632Z,69.34
2023-09-22T19:36:50.877Z,69.76
2023-09-22T19:39:17.285Z,69.84
2023-09-22T19:41:43.793Z,70.35
2023-09-22T19:44:10.201Z,70.69
2023-09-22T19:46:36.897Z,70.61
2023-09-22T19:49:06.608Z,70.35
2023-09-22T19:51:33.658Z,70.42
2023-09-22T19:54:00.618Z,70.53
2023-09-22T19:56:29.319Z,70.90
2023-09-22T19:58:56.609Z,70.66
2023-09-22T20:01:23.358Z,71.79
2023-09-22T20:03:50.453Z,71.24
2023-09-22T20:06:17.000Z,71.76
2023-09-22T20:08:43.610Z,71.25
2023-09-22T20:11:10.859Z,71.11
2023-09-22T20:13:39.122Z,72.22
2023-09-22T20:16:06.927Z,71.50
2023-09-22T20:18:34.412Z,70.31
2023-09-22T20:21:04.607Z,70.58
2023-09-22T20:23:31.665Z,71.48
2023-09-22T20:26:00.385Z,70.88
2023-09-22T20:28:27.277Z,71.01
2023-09-22T20:31:04.894Z,71.01
2023-09-22T20:33:31.521Z,71.27
2023-09-22T20:36:05.539Z,71.27
2023-09-22T20:38:32.132Z,72.47
2023-09-22T20:41:03.050Z,71.92
2023-09-22T20:43:32.735Z,72.05
2023-09-22T20:46:01.600Z,72.60
2023-09-22T20:48:31.964Z,72.28
2023-09-22T20:50:59.130Z,71.91
2023-09-22T20:53:28.624Z,72.37
2023-09-22T20:55:55.225Z,71.99
2023-09-22T20:58:22.743Z,73.00
2023-09-22T21:00:49.939Z,73.13
2023-09-22T21:03:21.426Z,73.21
2023-09-22T21:05:48.464Z,72.47
2023-09-22T21:08:15.600Z,72.15
2023-09-22T21:10:42.067Z,71.98
2023-09-22T21:13:09.997Z,72.66
2023-09-22T21:15:37.113Z,72.23
2023-09-22T21:18:03.756Z,72.67
2023-09-22T21:20:31.324Z,73.02
2023-09-22T21:22:58.549Z,73.87
2023-09-22T21:25:25.876Z,74.65
2023-09-22T21:27:52.301Z,74.47
2023-09-22T21:30:21.755Z,75.25
2023-09-22T21:32:49.020Z,74.66
2023-09-22T21:35:16.763Z,75.28
2023-09-22T21:37:46.188Z,74.98
2023-09-22T21:40:16.691Z,74.63
2023-09-22T21:42:43.144Z,74.64
2023-09-22T21:45:09.983Z,74.66
2023-09-22T21:47:36.535Z,74.52
2023-09-22T21:50:06.770Z,74.49
2023-09-22T21:52:35.987Z,74.67
2023-09-22T21:55:04.156Z,74.07
2023-09-22T21:57:31.814Z,75.16
2023-09-22T22:00:00.042Z,75.28
2023-09-22T22:02:27.477Z,74.03
2023-09-22T22:04:54.573Z,74.30
2023-09-22T22:07:23.512Z,74.50
2023-09-22T22:09:58.422Z,74.31
2023-09-22T22:12:24.963Z,75.16
2023-09-22T22:14:53.276Z,75.07
2023-09-22T22:17:26.322Z,74.70
2023-09-22T22:19:53.799Z,75.19
2023-09-22T22:22:21.150Z,74.60
2023-09-22T22:24:50.460Z,74.65
2023-09-22T22:27:21.014Z,74.65
2023-09-22T22:29:48.937Z,74.67
2023-09-22T22:32:16.274Z,74.21
2023-09-22T22:34:44.839Z,74.66
2023-09-22T22:37:15.350Z,75.11
2023-09-22T22:39:42.050Z,74.32
2023-09-22T22:42:12.517Z,74.74
2023-09-22T22:44:40.516Z,75.16
2023-09-22T22:47:15.081Z,74.73
2023-09-22T22:49:41.604Z,75.05
2023-09-22T22:52:08.811Z,75.38
2023-09-22T22:54:38.670Z,75.05
2023-09-22T22:57:06.241Z,75.49
2023-09-22T22:59:38.310Z,75.07
2023-09-22T23:02:05.264Z,75.36
2023-09-22T23:04:32.834Z,75.99
2023-09-22T23:06:59.430Z,75.08
2023-09-22T23:09:26.469Z,75.55
2023-09-22T23:11:55.970Z,75.18
2023-09-22T23:14:23.893Z,75.06
2023-09-22T23:16:51.965Z,75.56
2023-09-22T23:19:19.691Z,75.35
2023-09-22T23:21:46.896Z,75.47
2023-09-22T23:24:16.278Z,76.34
2023-09-22T23:26:43.367Z,76.35
2023-09-22T23:29:13.455Z,76.31
2023-09-22T23:31:44.003Z,76.17
2023-09-22T23:34:10.831Z,76.07
2023-09-22T23:36:38.268Z,75.87
2023-09-22T23:39:06.952Z,76.24
2023-09-22T23:41:33.803Z,75.83
2023-09-22T23:44:00.602Z,75.80
2023-09-22T23:46:27.699Z,76.05
2023-09-22T23:48:56.239Z,75.54
2023-09-22T23:51:23.899Z,75.81
2023-09-22T23:53:50.615Z,75.72
2023-09-22T23:56:17.073Z,76.05
2023-09-22T23:58:43.574Z,76.51
